createdAt,value
2018-01-29T00:00:50.074Z,13.38
2018-01-29T00:01:50.042Z,13.32
2018-01-29T00:02:50.013Z,13.39
2018-01-29T00:03:49.988Z,13.57
2018-01-29T00:04:49.960Z,13.51
2018-01-29T00:05:49.932Z,13.09
2018-01-29T00:06:49.905Z,12.98
2018-01-29T00:07:49.878Z,12.80
2018-01-29T00:08:49.863Z,12.92
2018-01-29T00:09:49.825Z,13.12
2018-01-29T00:10:49.798Z,13.24
2018-01-29T00:11:49.768Z,13.17
2018-01-29T00:12:49.746Z,13.29
2018-01-29T00:13:49.729Z,13.07
2018-01-29T00:14:49.688Z,13.04
2018-01-29T00:15:49.664Z,13.10
2018-01-29T00:16:49.631Z,12.99
2018-01-29T00:17:49.606Z,13.04
2018-01-29T00:18:49.580Z,13.09
2018-01-29T00:19:49.547Z,13.25
2018-01-29T00:20:49.529Z,13.04
2018-01-29T00:21:49.498Z,12.81
2018-01-29T00:22:49.475Z,12.85
2018-01-29T00:23:49.446Z,13.14
2018-01-29T00:24:49.415Z,13.38
2018-01-29T00:25:49.390Z,13.14
2018-01-29T00:26:49.361Z,13.07
2018-01-29T00:27:49.332Z,13.10
2018-01-29T00:28:49.308Z,13.54
2018-01-29T00:29:49.277Z,13.71
2018-01-29T00:30:49.248Z,13.39
2018-01-29T00:31:49.225Z,13.46
2018-01-29T00:32:49.196Z,13.66
2018-01-29T00:33:49.163Z,13.36
2018-01-29T00:34:49.141Z,13.62
2018-01-29T00:35:49.114Z,13.38
2018-01-29T00:36:49.083Z,13.29
2018-01-29T00:37:49.065Z,13.17
2018-01-29T00:38:49.031Z,13.50
2018-01-29T00:39:49.006Z,13.27
2018-01-29T00:40:48.977Z,13.03
2018-01-29T00:41:48.951Z,12.81
2018-01-29T00:42:48.918Z,12.79
2018-01-29T00:43:48.894Z,13.07
2018-01-29T00:44:48.866Z,13.10
2018-01-29T00:45:48.835Z,13.48
2018-01-29T00:46:48.813Z,13.76
2018-01-29T00:47:48.783Z,13.79
2018-01-29T00:48:48.755Z,13.36
2018-01-29T00:49:48.729Z,13.13
2018-01-29T00:50:48.702Z,13.19
2018-01-29T00:51:48.673Z,13.29
2018-01-29T00:52:48.651Z,13.43
2018-01-29T00:53:48.621Z,13.41
2018-01-29T00:54:48.596Z,13.38
2018-01-29T00:55:48.566Z,13.57
2018-01-29T00:56:48.537Z,13.69
2018-01-29T00:57:48.507Z,13.53
2018-01-29T00:58:48.481Z,13.38
2018-01-29T00:59:48.455Z,13.19
2018-01-29T01:00:48.428Z,13.48
2018-01-29T01:01:48.399Z,13.79
2018-01-29T01:02:48.379Z,13.57
2018-01-29T01:03:48.346Z,13.66
2018-01-29T01:04:48.317Z,13.83
2018-01-29T01:05:48.295Z,13.86
2018-01-29T01:06:48.264Z,13.54
2018-01-29T01:07:48.237Z,13.13
2018-01-29T01:08:48.218Z,13.17
2018-01-29T01:09:48.185Z,13.38
2018-01-29T01:10:48.155Z,13.53
2018-01-29T01:11:48.130Z,13.46
2018-01-29T01:12:48.098Z,13.57
2018-01-29T01:13:48.070Z,13.57
2018-01-29T01:14:48.045Z,13.62
2018-01-29T01:15:48.014Z,13.91
2018-01-29T01:16:47.989Z,13.66
2018-01-29T01:17:47.962Z,13.31
2018-01-29T01:18:47.933Z,13.09
2018-01-29T01:19:47.905Z,12.89
2018-01-29T01:20:47.878Z,13.31
2018-01-29T01:21:47.851Z,13.38
2018-01-29T01:22:47.829Z,13.53
2018-01-29T01:23:47.799Z,13.66
2018-01-29T01:24:47.771Z,13.48
2018-01-29T01:25:47.738Z,13.06
2018-01-29T01:26:47.715Z,13.10
2018-01-29T01:27:47.685Z,12.94
2018-01-29T01:28:47.653Z,12.96
2018-01-29T01:29:47.635Z,13.07
2018-01-29T01:30:47.607Z,13.04
2018-01-29T01:31:47.572Z,12.80
2018-01-29T01:32:47.546Z,12.70
2018-01-29T01:33:47.523Z,12.84
2018-01-29T01:34:47.497Z,13.07
2018-01-29T01:35:47.468Z,12.81
2018-01-29T01:36:47.437Z,12.91
2018-01-29T01:37:47.410Z,13.09
2018-01-29T01:38:47.384Z,13.39
2018-01-29T01:39:47.358Z,12.84
2018-01-29T01:40:47.323Z,12.77
2018-01-29T01:41:47.303Z,12.77
2018-01-29T01:42:47.269Z,12.79
2018-01-29T01:43:47.254Z,12.59
2018-01-29T01:44:47.218Z,12.71
2018-01-29T01:45:47.186Z,13.04
2018-01-29T01:46:47.159Z,12.89
2018-01-29T01:47:47.137Z,12.67
2018-01-29T01:48:47.126Z,13.03
2018-01-29T01:49:47.079Z,13.14
2018-01-29T01:50:47.053Z,13.21
2018-01-29T01:51:47.019Z,13.13
2018-01-29T01:52:46.992Z,13.12
2018-01-29T01:53:46.985Z,13.28
2018-01-29T01:54:46.941Z,13.38
2018-01-29T01:55:46.909Z,13.12
2018-01-29T01:56:46.895Z,13.21
2018-01-29T01:57:46.859Z,13.39
2018-01-29T01:58:46.831Z,13.22
2018-01-29T01:59:46.808Z,12.80
2018-01-29T02:00:46.777Z,12.69
2018-01-29T02:01:46.747Z,12.92
2018-01-29T02:02:46.727Z,13.17
2018-01-29T02:03:46.689Z,13.24
2018-01-29T02:04:46.666Z,12.94
2018-01-29T02:05:46.647Z,12.92
2018-01-29T02:06:46.617Z,12.76
2018-01-29T02:07:46.581Z,12.79
2018-01-29T02:08:46.555Z,13.06
2018-01-29T02:09:46.529Z,12.89
2018-01-29T02:10:46.498Z,12.85
2018-01-29T02:11:46.478Z,12.79
2018-01-29T02:12:46.444Z,12.67
2018-01-29T02:13:46.420Z,12.63
2018-01-29T02:14:46.390Z,12.46
2018-01-29T02:15:46.362Z,12.84
2018-01-29T02:16:46.336Z,13.03
2018-01-29T02:17:46.307Z,12.69
2018-01-29T02:18:46.278Z,12.69
2018-01-29T02:19:46.254Z,12.69
2018-01-29T02:20:46.228Z,13.03
2018-01-29T02:21:46.196Z,12.77
2018-01-29T02:22:46.171Z,12.62
2018-01-29T02:23:46.146Z,12.81
2018-01-29T02:24:46.114Z,12.71
2018-01-29T02:25:46.090Z,12.67
2018-01-29T02:26:46.073Z,12.61
2018-01-29T02:27:46.033Z,12.58
2018-01-29T02:28:46.004Z,12.71
2018-01-29T02:29:46.001Z,12.81
2018-01-29T02:30:45.954Z,12.76
2018-01-29T02:31:45.918Z,12.61
2018-01-29T02:32:45.896Z,12.70
2018-01-29T02:33:45.874Z,12.61
2018-01-29T02:34:45.840Z,12.84
2018-01-29T02:35:45.813Z,12.62
2018-01-29T02:36:45.785Z,12.46
2018-01-29T02:37:45.760Z,12.41
2018-01-29T02:38:45.732Z,12.34
2018-01-29T02:39:45.696Z,12.29
2018-01-29T02:40:45.674Z,12.54
2018-01-29T02:41:45.648Z,12.71
2018-01-29T02:42:45.620Z,12.48
2018-01-29T02:43:45.593Z,12.48
2018-01-29T02:44:45.563Z,12.41
2018-01-29T02:45:45.536Z,12.48
2018-01-29T02:46:45.511Z,12.30
2018-01-29T02:47:45.486Z,12.29
2018-01-29T02:48:45.446Z,12.38
2018-01-29T02:49:45.471Z,12.29
2018-01-29T02:50:45.406Z,12.48
2018-01-29T02:51:45.368Z,12.66
2018-01-29T02:52:45.338Z,12.98
2018-01-29T02:53:45.316Z,13.09
2018-01-29T02:54:45.285Z,12.96
2018-01-29T02:55:45.258Z,12.62
2018-01-29T02:56:45.231Z,12.31
2018-01-29T02:57:45.198Z,12.36
2018-01-29T02:58:45.174Z,12.56
2018-01-29T02:59:45.140Z,12.56
2018-01-29T03:00:45.114Z,12.55
2018-01-29T03:01:45.088Z,12.37
2018-01-29T03:02:45.067Z,12.19
2018-01-29T03:03:45.032Z,12.38
2018-01-29T03:04:45.007Z,12.56
2018-01-29T03:05:44.980Z,12.49
2018-01-29T03:06:44.949Z,12.71
2018-01-29T03:07:44.925Z,12.88
2018-01-29T03:08:44.897Z,13.06
2018-01-29T03:09:44.864Z,13.09
2018-01-29T03:10:44.854Z,12.79
2018-01-29T03:11:44.809Z,12.80
2018-01-29T03:12:44.784Z,12.44
2018-01-29T03:13:44.757Z,12.34
2018-01-29T03:14:44.731Z,12.31
2018-01-29T03:15:44.697Z,12.46
2018-01-29T03:16:44.671Z,12.30
2018-01-29T03:17:44.644Z,12.43
2018-01-29T03:18:44.618Z,12.66
2018-01-29T03:19:44.585Z,12.43
2018-01-29T03:20:44.563Z,12.29
2018-01-29T03:21:44.535Z,12.48
2018-01-29T03:22:44.511Z,12.41
2018-01-29T03:23:44.477Z,12.74
2018-01-29T03:24:44.450Z,12.62
2018-01-29T03:25:44.423Z,12.49
2018-01-29T03:26:44.398Z,12.73
2018-01-29T03:27:44.365Z,12.74
2018-01-29T03:28:44.339Z,12.46
2018-01-29T03:29:44.314Z,12.38
2018-01-29T03:30:44.290Z,12.36
2018-01-29T03:31:44.258Z,12.59
2018-01-29T03:32:44.227Z,12.70
2018-01-29T03:33:44.199Z,12.55
2018-01-29T03:34:44.178Z,12.48
2018-01-29T03:35:44.144Z,12.55
2018-01-29T03:36:44.121Z,12.25
2018-01-29T03:37:44.090Z,11.98
2018-01-29T03:38:44.061Z,12.26
2018-01-29T03:39:44.033Z,12.16
2018-01-29T03:40:44.008Z,12.21
2018-01-29T03:41:43.979Z,12.19
2018-01-29T03:42:43.950Z,12.30
2018-01-29T03:43:43.922Z,12.44
2018-01-29T03:44:43.895Z,12.62
2018-01-29T03:45:43.860Z,12.49
2018-01-29T03:46:43.840Z,12.25
2018-01-29T03:47:43.812Z,12.22
2018-01-29T03:48:43.784Z,11.98
2018-01-29T03:49:43.757Z,11.90
2018-01-29T03:50:43.722Z,11.96
2018-01-29T03:51:43.700Z,12.25
2018-01-29T03:52:43.675Z,12.48
2018-01-29T03:53:43.641Z,12.58
2018-01-29T03:54:43.612Z,12.18
2018-01-29T03:55:43.584Z,12.22
2018-01-29T03:56:43.560Z,12.30
2018-01-29T03:57:43.527Z,12.31
2018-01-29T03:58:43.505Z,12.29
2018-01-29T03:59:43.472Z,12.25
2018-01-29T04:00:43.446Z,12.01
2018-01-29T04:01:43.417Z,11.98
2018-01-29T04:02:43.388Z,11.93
2018-01-29T04:03:43.362Z,12.22
2018-01-29T04:04:43.333Z,12.26
2018-01-29T04:05:43.307Z,12.63
2018-01-29T04:06:43.282Z,12.66
2018-01-29T04:07:43.247Z,12.62
2018-01-29T04:08:43.224Z,12.61
2018-01-29T04:09:43.197Z,12.70
2018-01-29T04:10:43.165Z,12.70
2018-01-29T04:11:43.141Z,12.71
2018-01-29T04:12:43.130Z,12.87
2018-01-29T04:13:43.084Z,12.76
2018-01-29T04:14:43.056Z,12.79
2018-01-29T04:15:43.029Z,12.71
2018-01-29T04:16:43.001Z,12.71
2018-01-29T04:17:42.971Z,12.49
2018-01-29T04:18:42.946Z,12.36
2018-01-29T04:19:42.915Z,12.52
2018-01-29T04:20:42.883Z,12.74
2018-01-29T04:21:42.860Z,12.69
2018-01-29T04:22:42.830Z,12.91
2018-01-29T04:23:42.803Z,13.03
2018-01-29T04:24:42.776Z,12.62
2018-01-29T04:25:42.748Z,12.63
2018-01-29T04:26:42.718Z,12.73
2018-01-29T04:27:42.699Z,12.89
2018-01-29T04:28:42.665Z,12.99
2018-01-29T04:29:42.637Z,12.89
2018-01-29T04:30:42.607Z,13.12
2018-01-29T04:31:42.582Z,12.62
2018-01-29T04:32:42.554Z,12.66
2018-01-29T04:33:42.534Z,12.55
2018-01-29T04:34:42.512Z,12.44
2018-01-29T04:35:42.470Z,12.41
2018-01-29T04:36:42.443Z,12.77
2018-01-29T04:37:42.415Z,12.41
2018-01-29T04:38:42.387Z,12.34
2018-01-29T04:39:42.356Z,12.31
2018-01-29T04:40:42.336Z,12.22
2018-01-29T04:41:42.304Z,12.23
2018-01-29T04:42:42.295Z,12.37
2018-01-29T04:43:42.263Z,12.22
2018-01-29T04:44:42.222Z,12.38
2018-01-29T04:45:42.192Z,12.59
2018-01-29T04:46:42.166Z,12.70
2018-01-29T04:47:42.132Z,12.40
2018-01-29T04:48:42.125Z,12.38
2018-01-29T04:49:42.080Z,12.19
2018-01-29T04:50:42.054Z,12.07
2018-01-29T04:51:42.021Z,12.15
2018-01-29T04:52:41.995Z,12.12
2018-01-29T04:53:41.967Z,12.15
2018-01-29T04:54:41.940Z,12.18
2018-01-29T04:55:41.910Z,12.31
2018-01-29T04:56:41.881Z,12.12
2018-01-29T04:57:41.860Z,12.19
2018-01-29T04:58:41.830Z,12.26
2018-01-29T04:59:41.798Z,12.16
2018-01-29T05:00:41.772Z,12.04
2018-01-29T05:01:41.744Z,12.01
2018-01-29T05:02:41.715Z,12.25
2018-01-29T05:03:41.688Z,12.48
2018-01-29T05:04:41.661Z,12.36
2018-01-29T05:05:41.636Z,12.48
2018-01-29T05:06:41.602Z,12.21
2018-01-29T05:07:41.576Z,12.21
2018-01-29T05:08:41.545Z,12.26
2018-01-29T05:09:41.523Z,12.22
2018-01-29T05:10:41.492Z,12.15
2018-01-29T05:11:41.464Z,12.07
2018-01-29T05:12:41.436Z,12.00
2018-01-29T05:13:41.410Z,11.84
2018-01-29T05:14:41.381Z,11.97
2018-01-29T05:15:41.352Z,12.04
2018-01-29T05:16:41.327Z,12.04
2018-01-29T05:17:41.297Z,12.13
2018-01-29T05:18:41.269Z,12.19
2018-01-29T05:19:41.241Z,12.23
2018-01-29T05:20:41.214Z,12.12
2018-01-29T05:21:41.184Z,12.48
2018-01-29T05:22:41.157Z,12.40
2018-01-29T05:23:41.130Z,12.12
2018-01-29T05:24:41.127Z,12.03
2018-01-29T05:25:41.073Z,12.37
2018-01-29T05:26:41.045Z,12.19
2018-01-29T05:27:41.016Z,12.15
2018-01-29T05:28:40.990Z,12.12
2018-01-29T05:29:40.960Z,12.18
2018-01-29T05:30:40.935Z,11.96
2018-01-29T05:31:40.905Z,11.82
2018-01-29T05:32:40.877Z,11.63
2018-01-29T05:33:40.852Z,11.79
2018-01-29T05:34:40.821Z,11.90
2018-01-29T05:35:40.793Z,11.87
2018-01-29T05:36:40.766Z,12.13
2018-01-29T05:37:40.738Z,12.19
2018-01-29T05:38:40.710Z,12.21
2018-01-29T05:39:40.684Z,12.13
2018-01-29T05:40:40.656Z,12.31
2018-01-29T05:41:40.626Z,12.23
2018-01-29T05:42:40.603Z,12.13
2018-01-29T05:43:40.574Z,12.38
2018-01-29T05:44:40.544Z,12.31
2018-01-29T05:45:40.511Z,11.96
2018-01-29T05:46:40.489Z,12.12
2018-01-29T05:47:40.454Z,11.94
2018-01-29T05:48:40.429Z,11.87
2018-01-29T05:49:40.405Z,12.00
2018-01-29T05:50:40.374Z,11.82
2018-01-29T05:51:40.344Z,11.81
2018-01-29T05:52:40.313Z,11.81
2018-01-29T05:53:40.307Z,12.15
2018-01-29T05:54:40.261Z,11.84
2018-01-29T05:55:40.238Z,11.78
2018-01-29T05:56:40.218Z,11.82
2018-01-29T05:57:40.229Z,11.77
2018-01-29T05:58:40.143Z,11.70
2018-01-29T05:59:40.123Z,11.85
2018-01-29T06:00:40.093Z,11.85
2018-01-29T06:01:40.064Z,11.85
2018-01-29T06:02:40.040Z,11.96
2018-01-29T06:03:40.009Z,12.00
2018-01-29T06:04:39.979Z,12.01
2018-01-29T06:05:39.961Z,11.96
2018-01-29T06:06:40.070Z,11.82
2018-01-29T06:07:39.897Z,11.96
2018-01-29T06:08:39.869Z,11.84
2018-01-29T06:09:39.853Z,11.78
2018-01-29T06:10:39.869Z,11.79
2018-01-29T06:11:39.793Z,12.00
2018-01-29T06:12:39.757Z,11.87
2018-01-29T06:13:39.728Z,11.96
2018-01-29T06:14:39.703Z,11.82
2018-01-29T06:15:39.672Z,11.85
2018-01-29T06:16:39.643Z,11.81
2018-01-29T06:17:39.628Z,11.90
2018-01-29T06:18:39.588Z,11.98
2018-01-29T06:19:39.558Z,12.12
2018-01-29T06:20:39.532Z,12.21
2018-01-29T06:21:39.509Z,12.38
2018-01-29T06:22:39.474Z,12.19
2018-01-29T06:23:39.449Z,12.33
2018-01-29T06:24:39.419Z,12.04
2018-01-29T06:25:39.394Z,11.93
2018-01-29T06:26:39.361Z,11.94
2018-01-29T06:27:39.333Z,11.97
2018-01-29T06:28:39.304Z,12.04
2018-01-29T06:29:39.281Z,11.97
2018-01-29T06:30:39.247Z,11.98
2018-01-29T06:31:39.220Z,12.04
2018-01-29T06:32:39.195Z,12.41
2018-01-29T06:33:39.174Z,12.67
2018-01-29T06:34:39.138Z,12.70
2018-01-29T06:35:39.109Z,12.26
2018-01-29T06:36:39.088Z,12.46
2018-01-29T06:37:39.055Z,12.19
2018-01-29T06:38:39.028Z,12.34
2018-01-29T06:39:38.998Z,12.38
2018-01-29T06:40:38.971Z,12.43
2018-01-29T06:41:38.942Z,12.31
2018-01-29T06:42:38.913Z,12.40
2018-01-29T06:43:38.887Z,12.33
2018-01-29T06:44:38.860Z,12.01
2018-01-29T06:45:38.834Z,12.03
2018-01-29T06:46:38.800Z,11.98
2018-01-29T06:47:38.774Z,12.00
2018-01-29T06:48:38.749Z,12.07
2018-01-29T06:49:38.718Z,11.97
2018-01-29T06:50:38.703Z,11.96
2018-01-29T06:51:38.667Z,11.97
2018-01-29T06:52:38.638Z,12.04
2018-01-29T06:53:38.609Z,12.25
2018-01-29T06:54:38.580Z,12.13
2018-01-29T06:55:38.549Z,12.15
2018-01-29T06:56:38.522Z,12.12
2018-01-29T06:57:38.497Z,12.21
2018-01-29T06:58:38.469Z,12.29
2018-01-29T06:59:38.443Z,12.44
2018-01-29T07:00:38.418Z,12.22
2018-01-29T07:01:38.378Z,11.96
2018-01-29T07:02:38.371Z,12.01
2018-01-29T07:03:38.333Z,12.04
2018-01-29T07:04:38.301Z,12.11
2018-01-29T07:05:38.271Z,12.31
2018-01-29T07:06:38.242Z,12.23
2018-01-29T07:07:38.212Z,11.87
2018-01-29T07:08:38.188Z,11.94
2018-01-29T07:09:38.168Z,12.19
2018-01-29T07:10:38.130Z,11.98
2018-01-29T07:11:38.098Z,11.98
2018-01-29T07:12:38.076Z,12.00
2018-01-29T07:13:38.054Z,12.13
2018-01-29T07:14:38.037Z,11.94
2018-01-29T07:15:37.988Z,11.84
2018-01-29T07:16:37.962Z,11.74
2018-01-29T07:17:37.935Z,11.59
2018-01-29T07:18:37.908Z,11.64
2018-01-29T07:19:37.881Z,12.12
2018-01-29T07:20:37.856Z,12.37
2018-01-29T07:21:37.823Z,12.25
2018-01-29T07:22:37.798Z,12.19
2018-01-29T07:23:37.781Z,12.07
2018-01-29T07:24:37.737Z,11.90
2018-01-29T07:25:37.715Z,12.00
2018-01-29T07:26:37.682Z,11.98
2018-01-29T07:27:37.702Z,11.81
2018-01-29T07:28:37.624Z,11.79
2018-01-29T07:29:37.608Z,11.97
2018-01-29T07:30:37.569Z,12.15
2018-01-29T07:31:37.563Z,11.82
2018-01-29T07:32:37.511Z,11.77
2018-01-29T07:33:37.484Z,12.15
2018-01-29T07:34:37.465Z,12.30
2018-01-29T07:35:37.428Z,12.33
2018-01-29T07:36:37.400Z,12.31
2018-01-29T07:37:37.370Z,12.63
2018-01-29T07:38:37.362Z,12.61
2018-01-29T07:39:37.317Z,12.48
2018-01-29T07:40:37.291Z,12.44
2018-01-29T07:41:37.259Z,12.19
2018-01-29T07:42:37.233Z,12.16
2018-01-29T07:43:37.203Z,12.18
2018-01-29T07:44:39.891Z,12.26
2018-01-29T07:45:37.146Z,12.29
2018-01-29T07:46:37.123Z,12.43
2018-01-29T07:47:37.091Z,12.40
2018-01-29T07:48:37.065Z,12.25
2018-01-29T07:49:37.056Z,12.38
2018-01-29T07:50:37.016Z,12.46
2018-01-29T07:51:36.978Z,12.46
2018-01-29T07:52:36.955Z,12.55
2018-01-29T07:53:36.925Z,12.55
2018-01-29T07:54:36.904Z,12.51
2018-01-29T07:55:36.871Z,12.48
2018-01-29T07:56:36.840Z,12.63
2018-01-29T07:57:36.817Z,12.89
2018-01-29T07:58:36.785Z,12.62
2018-01-29T07:59:36.755Z,12.55
2018-01-29T08:00:36.737Z,12.54
2018-01-29T08:01:36.702Z,12.41
2018-01-29T08:02:36.678Z,12.56
2018-01-29T08:03:36.650Z,12.46
2018-01-29T08:04:36.619Z,12.46
2018-01-29T08:05:36.625Z,12.63
2018-01-29T08:06:36.561Z,12.30
2018-01-29T08:07:36.533Z,12.30
2018-01-29T08:08:36.510Z,12.62
2018-01-29T08:09:36.480Z,12.63
2018-01-29T08:10:36.452Z,12.48
2018-01-29T08:11:36.427Z,12.70
2018-01-29T08:12:36.393Z,12.81
2018-01-29T08:13:36.370Z,12.70
2018-01-29T08:14:36.343Z,12.44
2018-01-29T08:15:36.312Z,12.59
2018-01-29T08:16:36.282Z,12.74
2018-01-29T08:17:36.261Z,12.67
2018-01-29T08:18:36.235Z,12.40
2018-01-29T08:19:36.212Z,12.52
2018-01-29T08:20:36.177Z,12.51
2018-01-29T08:21:36.157Z,12.56
2018-01-29T08:22:36.121Z,12.59
2018-01-29T08:23:36.095Z,12.29
2018-01-29T08:24:36.066Z,12.19
2018-01-29T08:25:36.033Z,12.38
2018-01-29T08:26:36.013Z,12.51
2018-01-29T08:27:35.978Z,12.46
2018-01-29T08:28:35.969Z,12.40
2018-01-29T08:29:35.928Z,12.59
2018-01-29T08:30:35.893Z,12.59
2018-01-29T08:31:35.871Z,12.46
2018-01-29T08:32:35.842Z,12.37
2018-01-29T08:33:35.809Z,12.38
2018-01-29T08:34:35.788Z,12.16
2018-01-29T08:35:35.758Z,12.16
2018-01-29T08:36:35.727Z,12.19
2018-01-29T08:37:35.701Z,12.22
2018-01-29T08:38:35.676Z,12.23
2018-01-29T08:39:35.648Z,12.46
2018-01-29T08:40:35.624Z,12.37
2018-01-29T08:41:35.589Z,12.16
2018-01-29T08:42:35.582Z,12.22
2018-01-29T08:43:35.541Z,12.03
2018-01-29T08:44:35.501Z,12.16
2018-01-29T08:45:35.476Z,12.18
2018-01-29T08:46:35.456Z,11.96
2018-01-29T08:47:35.416Z,11.94
2018-01-29T08:48:35.405Z,11.98
2018-01-29T08:49:35.367Z,12.04
2018-01-29T08:50:35.335Z,12.19
2018-01-29T08:51:35.320Z,12.04
2018-01-29T08:52:35.406Z,12.12
2018-01-29T08:53:35.251Z,12.18
2018-01-29T08:54:35.245Z,12.15
2018-01-29T08:55:35.254Z,12.25
2018-01-29T08:56:35.165Z,12.13
2018-01-29T08:57:35.165Z,12.29
2018-01-29T08:58:35.114Z,12.13
2018-01-29T08:59:35.085Z,12.16
2018-01-29T09:00:35.069Z,12.30
2018-01-29T09:01:35.034Z,12.49
2018-01-29T09:02:35.001Z,12.15
2018-01-29T09:03:34.973Z,12.15
2018-01-29T09:04:34.944Z,12.44
2018-01-29T09:05:34.916Z,12.46
2018-01-29T09:06:34.888Z,12.58
2018-01-29T09:07:34.866Z,12.51
2018-01-29T09:08:34.833Z,12.63
2018-01-29T09:09:34.828Z,12.76
2018-01-29T09:10:34.778Z,12.58
2018-01-29T09:11:34.768Z,12.76
2018-01-29T09:12:34.721Z,12.66
2018-01-29T09:13:34.694Z,12.77
2018-01-29T09:14:34.667Z,12.66
2018-01-29T09:15:34.642Z,12.79
2018-01-29T09:16:34.609Z,12.67
2018-01-29T09:17:34.603Z,12.73
2018-01-29T09:18:34.555Z,12.55
2018-01-29T09:19:34.526Z,12.48
2018-01-29T09:20:34.610Z,12.69
2018-01-29T09:21:34.474Z,12.69
2018-01-29T09:22:34.455Z,12.62
2018-01-29T09:23:34.429Z,12.69
2018-01-29T09:24:34.394Z,12.48
2018-01-29T09:25:34.361Z,12.58
2018-01-29T09:43:53.972Z,12.81
2018-01-29T09:44:53.976Z,13.06
2018-01-29T09:46:47.271Z,13.32
2018-01-29T09:47:47.163Z,13.27
2018-01-29T09:48:47.244Z,13.29
2018-01-29T09:49:47.105Z,13.14
2018-01-29T09:50:47.069Z,13.17
2018-01-29T09:51:47.043Z,13.27
2018-01-29T09:52:47.018Z,13.35
2018-01-29T09:53:47.077Z,13.46
2018-01-29T09:54:46.965Z,13.53
2018-01-29T09:55:46.924Z,13.50
2018-01-29T09:56:46.899Z,13.61
2018-01-29T09:57:47.922Z,13.65
2018-01-29T09:58:46.838Z,13.47
2018-01-29T09:59:47.842Z,13.41
2018-01-29T10:00:46.782Z,13.41
2018-01-29T10:01:46.823Z,13.13
2018-01-29T10:02:46.734Z,13.13
2018-01-29T10:03:47.781Z,13.16
2018-01-29T10:04:46.669Z,13.32
2018-01-29T10:05:46.756Z,13.50
2018-01-29T10:06:46.604Z,13.65
2018-01-29T10:07:46.662Z,13.16
2018-01-29T10:08:46.548Z,13.32
2018-01-29T10:09:46.573Z,13.41
2018-01-29T10:10:46.499Z,13.50
2018-01-29T10:11:46.485Z,13.44
2018-01-29T10:12:46.440Z,13.43
2018-01-29T10:13:46.406Z,13.35
2018-01-29T10:14:46.381Z,13.36
2018-01-29T10:15:46.349Z,13.51
2018-01-29T10:16:46.343Z,13.39
2018-01-29T10:17:46.296Z,13.22
2018-01-29T10:18:46.363Z,13.21
2018-01-29T10:19:46.233Z,13.21
2018-01-29T10:20:46.213Z,13.27
2018-01-29T10:21:46.230Z,13.41
2018-01-29T10:22:46.151Z,13.51
2018-01-29T10:23:47.178Z,13.50
2018-01-29T10:24:46.092Z,13.46
2018-01-29T10:25:46.168Z,13.47
2018-01-29T10:26:46.052Z,13.47
2018-01-29T10:27:46.080Z,13.57
2018-01-29T10:28:45.985Z,13.46
2018-01-29T10:29:45.989Z,13.22
2018-01-29T10:30:45.917Z,13.13
2018-01-29T10:31:46.002Z,13.32
2018-01-29T10:32:45.866Z,13.47
2018-01-29T10:33:45.912Z,13.10
2018-01-29T10:34:45.805Z,13.04
2018-01-29T10:35:45.775Z,12.89
2018-01-29T10:36:45.831Z,12.91
2018-01-29T10:37:45.715Z,12.87
2018-01-29T10:38:45.743Z,13.07
2018-01-29T10:39:45.677Z,13.01
2018-01-29T10:40:45.658Z,13.01
2018-01-29T10:41:45.601Z,12.98
2018-01-29T10:42:45.683Z,12.95
2018-01-29T10:43:45.550Z,12.85
2018-01-29T10:44:45.580Z,12.89
2018-01-29T10:45:45.487Z,13.32
2018-01-29T10:46:45.493Z,13.01
2018-01-29T10:47:45.430Z,13.06
2018-01-29T10:48:45.502Z,13.12
2018-01-29T10:49:45.370Z,13.29
2018-01-29T10:50:45.419Z,13.48
2018-01-29T10:51:45.319Z,13.63
2018-01-29T10:52:45.324Z,13.66
2018-01-29T10:53:45.249Z,13.41
2018-01-29T10:54:45.243Z,13.38
2018-01-29T10:55:45.202Z,13.46
2018-01-29T10:56:45.250Z,13.13
2018-01-29T10:57:45.169Z,13.06
2018-01-29T10:58:45.182Z,12.94
2018-01-29T10:59:45.084Z,13.07
2018-01-29T11:00:45.091Z,13.09
2018-01-29T11:01:45.021Z,13.07
2018-01-29T11:02:45.091Z,12.89
2018-01-29T11:03:44.962Z,12.85
2018-01-29T11:04:45.003Z,12.89
2018-01-29T11:05:44.906Z,12.76
2018-01-29T11:06:44.911Z,12.89
2018-01-29T11:07:44.848Z,12.89
2018-01-29T11:08:44.922Z,12.89
2018-01-29T11:09:44.807Z,12.71
2018-01-29T11:10:44.757Z,12.70
2018-01-29T11:11:44.840Z,12.79
2018-01-29T11:12:44.706Z,12.74
2018-01-29T11:13:44.755Z,12.85
2018-01-29T11:14:44.638Z,12.80
2018-01-29T11:15:44.620Z,12.69
2018-01-29T11:16:44.667Z,12.69
2018-01-29T11:17:44.553Z,12.70
2018-01-29T11:18:45.606Z,12.74
2018-01-29T11:19:44.498Z,12.67
2018-01-29T11:20:44.486Z,12.74
2018-01-29T11:21:44.449Z,12.66
2018-01-29T11:22:44.413Z,12.71
2018-01-29T11:23:44.381Z,12.70
2018-01-29T11:24:44.419Z,12.81
2018-01-29T11:25:44.327Z,12.71
2018-01-29T11:26:44.296Z,12.70
2018-01-29T11:27:44.265Z,12.81
2018-01-29T11:28:45.263Z,12.70
2018-01-29T11:29:44.208Z,12.71
2018-01-29T11:30:44.175Z,12.79
2018-01-29T11:31:44.151Z,12.89
2018-01-29T11:32:44.129Z,13.07
2018-01-29T11:33:44.097Z,12.98
2018-01-29T11:34:44.061Z,12.96
2018-01-29T11:35:45.111Z,12.84
2018-01-29T11:36:44.003Z,12.87
2018-01-29T11:37:43.997Z,12.84
2018-01-29T11:38:43.943Z,12.74
2018-01-29T11:39:44.013Z,12.70
2018-01-29T11:40:43.888Z,12.81
2018-01-29T11:41:43.880Z,12.77
2018-01-29T11:42:43.830Z,12.77
2018-01-29T11:43:43.802Z,12.79
2018-01-29T11:44:43.776Z,12.76
2018-01-29T11:45:43.742Z,12.76
2018-01-29T11:46:43.750Z,12.79
2018-01-29T11:47:43.686Z,12.79
2018-01-29T11:48:43.765Z,12.88
2018-01-29T11:49:43.625Z,12.95
2018-01-29T11:50:43.599Z,12.96
2018-01-29T11:51:43.682Z,13.04
2018-01-29T11:52:43.545Z,13.19
2018-01-29T11:53:43.514Z,13.14
2018-01-29T11:54:43.477Z,13.22
2018-01-29T11:55:43.460Z,13.04
2018-01-29T11:56:43.421Z,13.07
2018-01-29T11:57:43.413Z,13.28
2018-01-29T11:58:43.365Z,13.54
2018-01-29T11:59:43.336Z,13.47
2018-01-29T12:00:43.349Z,13.14
2018-01-29T12:01:43.279Z,13.17
2018-01-29T12:02:43.347Z,13.03
2018-01-29T12:03:43.229Z,12.87
2018-01-29T12:04:43.191Z,12.69
2018-01-29T12:05:43.206Z,12.71
2018-01-29T12:06:43.168Z,12.98
2018-01-29T12:07:43.106Z,13.12
2018-01-29T12:08:43.842Z,13.09
2018-01-29T12:09:43.105Z,13.21
2018-01-29T12:10:43.093Z,13.38
2018-01-29T12:11:42.996Z,13.68
2018-01-29T12:12:43.006Z,13.44
2018-01-29T12:13:42.938Z,13.54
2018-01-29T12:14:42.901Z,13.57
2018-01-29T12:15:42.878Z,13.69
2018-01-29T12:16:42.872Z,13.66
2018-01-29T12:17:42.821Z,13.71
2018-01-29T12:18:42.842Z,13.47
2018-01-29T12:19:42.766Z,13.63
2018-01-29T12:20:42.773Z,13.69
2018-01-29T12:21:42.711Z,13.66
2018-01-29T12:22:42.766Z,13.61
2018-01-29T12:23:42.653Z,13.46
2018-01-29T12:24:42.674Z,13.29
2018-01-29T12:25:42.595Z,13.19
2018-01-29T12:26:42.588Z,13.16
2018-01-29T12:27:42.536Z,13.09
2018-01-29T12:28:42.608Z,12.98
2018-01-29T12:29:42.487Z,13.04
2018-01-29T12:30:43.535Z,12.94
2018-01-29T12:31:42.423Z,12.73
2018-01-29T12:32:42.425Z,12.92
2018-01-29T12:33:42.365Z,12.91
2018-01-29T12:34:42.437Z,12.85
2018-01-29T12:35:42.324Z,12.80
2018-01-29T12:36:42.350Z,12.71
2018-01-29T12:37:42.250Z,13.09
2018-01-29T12:38:42.257Z,13.29
2018-01-29T12:39:42.188Z,13.29
2018-01-29T12:40:42.299Z,13.53
2018-01-29T12:41:42.137Z,13.63
2018-01-29T12:42:42.185Z,13.39
2018-01-29T12:43:42.085Z,13.32
2018-01-29T12:44:42.051Z,13.24
2018-01-29T12:45:42.154Z,12.98
2018-01-29T12:46:41.990Z,12.87
2018-01-29T12:47:42.013Z,12.91
2018-01-29T12:48:41.982Z,12.81
2018-01-29T12:49:41.929Z,12.92
2018-01-29T12:50:41.880Z,12.88
2018-01-29T12:51:41.937Z,12.79
2018-01-29T12:52:41.815Z,13.09
2018-01-29T12:53:41.789Z,13.06
2018-01-29T12:54:41.787Z,13.03
2018-01-29T12:55:41.759Z,12.84
2018-01-29T12:56:41.701Z,12.81
2018-01-29T12:57:41.774Z,12.92
2018-01-29T12:58:41.645Z,12.73
2018-01-29T12:59:41.684Z,13.07
2018-01-29T13:00:41.600Z,13.46
2018-01-29T13:01:41.562Z,13.75
2018-01-29T13:02:41.522Z,13.61
2018-01-29T13:03:41.608Z,13.36
2018-01-29T13:04:41.468Z,13.16
2018-01-29T13:05:41.518Z,12.84
2018-01-29T13:06:41.448Z,13.09
2018-01-29T13:07:41.435Z,13.35
2018-01-29T13:08:41.356Z,13.28
2018-01-29T13:09:41.353Z,13.12
2018-01-29T13:10:41.296Z,12.89